Time;durP1;ratioP1;P1;durP2;ratioP2;P2;SDS_P1;SDS_P2;PMS_P1;PMS_P2;Temp;Humidity;BMP_temperature;BMP_pressure;BME280_temperature;BME280_humidity;BME280_pressure;Samples;Min_cycle;Max_cycle;Signal;HPM_P1;HPM_P2
2022/01/28 00:01:16;;;;;;;29.85;4.40;;;7.60;69.50;;;;;;2373872;56;21131;-75
2022/01/28 00:03:44;;;;;;;17.98;4.10;;;7.60;69.40;;;;;;2373000;56;21512;-75
2022/01/28 00:06:12;;;;;;;33.55;5.07;;;7.60;69.20;;;;;;2373424;56;21122;-75
2022/01/28 00:08:39;;;;;;;28.83;4.80;;;7.60;68.80;;;;;;2374136;56;21075;-75
2022/01/28 00:11:07;;;;;;;23.87;5.40;;;7.60;68.80;;;;;;2627168;52;21051;-75
2022/01/28 00:13:37;;;;;;;32.55;4.57;;;7.50;68.90;;;;;;2373799;56;21090;-76
2022/01/28 00:19:10;;;;;;;17.62;3.50;;;7.50;69.10;;;;;;2626047;52;21047;-75
2022/01/28 00:38:12;;;;;;;24.05;4.25;;;7.40;68.90;;;;;;2373751;56;21054;-73
2022/01/28 00:40:39;;;;;;;22.92;3.65;;;7.50;68.40;;;;;;2373608;56;21099;-73
2022/01/28 00:43:07;;;;;;;20.45;4.05;;;7.40;68.60;;;;;;2627232;52;21047;-76
2022/01/28 00:45:34;;;;;;;20.00;4.70;;;7.50;68.20;;;;;;2373911;56;21121;-73
2022/01/28 00:48:01;;;;;;;22.35;3.90;;;7.50;67.50;;;;;;2373971;56;21037;-73
2022/01/28 00:50:29;;;;;;;22.08;3.90;;;7.50;67.40;;;;;;2373384;56;21035;-73
2022/01/28 00:52:56;;;;;;;20.02;3.30;;;7.40;67.80;;;;;;2627234;52;21534;-73
2022/01/28 00:55:23;;;;;;;26.73;4.10;;;7.40;67.60;;;;;;2373692;56;21090;-73
2022/01/28 00:57:50;;;;;;;19.90;3.67;;;7.40;67.30;;;;;;2373629;56;21546;-74
2022/01/28 01:00:18;;;;;;;22.98;4.22;;;7.50;67.40;;;;;;2373576;56;21059;-72
2022/01/28 01:02:46;;;;;;;18.83;2.95;;;7.50;67.40;;;;;;2373515;56;21138;-72
2022/01/28 01:05:13;;;;;;;22.23;3.72;;;7.50;67.70;;;;;;2374100;56;21071;-73
2022/01/28 01:07:40;;;;;;;27.27;5.07;;;7.40;67.50;;;;;;2626969;52;21545;-72
2022/01/28 01:10:10;;;;;;;14.98;3.67;;;7.40;68.00;;;;;;2627002;52;21095;-73
2022/01/28 01:12:43;;;;;;;19.60;3.45;;;7.40;69.10;;;;;;2373768;56;21053;-73
2022/01/28 01:15:17;;;;;;;30.95;5.12;;;7.50;68.80;;;;;;2373928;56;21095;-73
2022/01/28 01:17:53;;;;;;;31.20;4.28;;;7.50;68.90;;;;;;2374080;56;21546;-73
2022/01/28 01:20:39;;;;;;;26.90;4.25;;;7.50;68.10;;;;;;2373389;56;21069;-74
2022/01/28 01:23:09;;;;;;;33.10;4.45;;;7.50;68.00;;;;;;2374131;56;21086;-73
2022/01/28 01:25:45;;;;;;;27.37;4.35;;;7.50;68.30;;;;;;2373646;56;21118;-74
2022/01/28 01:28:14;;;;;;;21.65;4.43;;;7.50;68.90;;;;;;2627204;52;21038;-72
2022/01/28 01:30:43;;;;;;;23.75;4.15;;;7.50;68.30;;;;;;2373481;56;21110;-73
2022/01/28 01:33:12;;;;;;;22.77;4.43;;;7.50;68.30;;;;;;2373830;56;21115;-74
2022/01/28 01:35:40;;;;;;;22.42;4.80;;;7.40;68.30;;;;;;2374156;56;21297;-74
2022/01/28 01:38:09;;;;;;;18.95;3.72;;;7.40;68.70;;;;;;2373695;56;21095;-74
2022/01/28 01:40:44;;;;;;;29.00;5.68;;;7.40;68.80;;;;;;2373609;56;21110;-73
2022/01/28 01:43:16;;;;;;;18.58;4.35;;;7.40;69.00;;;;;;2374158;56;21039;-74
2022/01/28 01:54:10;;;;;;;26.42;4.55;;;7.30;69.20;;;;;;2373805;56;21015;-74
2022/01/28 01:56:40;;;;;;;22.80;3.92;;;7.30;69.80;;;;;;2373791;56;21573;-72
2022/01/28 01:59:09;;;;;;;25.35;4.22;;;7.30;70.10;;;;;;2373333;56;21157;-73
2022/01/28 02:01:38;;;;;;;26.23;5.50;;;7.30;69.70;;;;;;2373468;56;21609;-72
2022/01/28 02:04:06;;;;;;;26.42;3.97;;;7.30;69.80;;;;;;2371716;56;21803;-73
2022/01/28 02:06:33;;;;;;;20.37;4.05;;;7.30;69.70;;;;;;2373259;56;21046;-73
2022/01/28 02:09:00;;;;;;;22.85;4.15;;;7.30;70.00;;;;;;2373316;56;21587;-73
2022/01/28 02:11:28;;;;;;;19.75;4.40;;;7.30;69.50;;;;;;2374031;56;21121;-74
2022/01/28 02:13:55;;;;;;;17.15;3.45;;;7.30;69.60;;;;;;2373511;56;21169;-73
2022/01/28 02:16:22;;;;;;;23.83;3.45;;;7.20;69.30;;;;;;2373905;56;21138;-73
2022/01/28 02:18:49;;;;;;;17.45;3.42;;;7.20;69.70;;;;;;2373589;56;21122;-73
2022/01/28 02:21:18;;;;;;;14.23;3.47;;;7.20;69.30;;;;;;2373751;56;21051;-74
2022/01/28 02:23:50;;;;;;;22.95;4.12;;;7.20;68.90;;;;;;2627252;52;21059;-76
2022/01/28 02:26:17;;;;;;;19.48;4.90;;;7.20;68.40;;;;;;2374150;56;21051;-76
2022/01/28 02:28:49;;;;;;;22.77;3.28;;;7.20;68.50;;;;;;2373355;56;21023;-76
2022/01/28 02:31:21;;;;;;;25.05;4.47;;;7.20;68.30;;;;;;2374019;56;21585;-76
2022/01/28 02:33:51;;;;;;;18.00;3.17;;;7.20;68.10;;;;;;2373617;56;21075;-75
2022/01/28 02:36:18;;;;;;;17.08;3.70;;;7.20;68.20;;;;;;2373890;56;21047;-76
2022/01/28 02:38:45;;;;;;;17.35;3.78;;;7.20;67.90;;;;;;2373759;56;21055;-76
2022/01/28 02:41:13;;;;;;;14.27;3.62;;;7.20;68.20;;;;;;2374178;56;21051;-76
2022/01/28 02:43:45;;;;;;;30.40;4.57;;;7.20;68.10;;;;;;2373934;56;21116;-75
2022/01/28 02:46:14;;;;;;;14.18;3.15;;;7.10;66.90;;;;;;2373677;56;21059;-76
2022/01/28 02:48:52;;;;;;;17.65;3.37;;;7.10;67.50;;;;;;2373816;56;21050;-73
2022/01/28 02:51:22;;;;;;;24.65;4.25;;;7.00;67.30;;;;;;2374184;56;21122;-74
2022/01/28 02:53:55;;;;;;;20.42;4.20;;;7.10;67.30;;;;;;2627344;52;21063;-74
2022/01/28 02:56:33;;;;;;;20.45;3.62;;;7.10;67.20;;;;;;2374263;56;21047;-74
2022/01/28 02:59:01;;;;;;;19.60;3.37;;;7.00;67.20;;;;;;2373727;56;21121;-75
2022/01/28 03:01:29;;;;;;;18.62;3.25;;;7.10;67.80;;;;;;2374094;56;21038;-74
2022/01/28 03:03:58;;;;;;;18.87;3.28;;;7.10;67.10;;;;;;2373380;56;21047;-74
2022/01/28 03:06:25;;;;;;;21.70;4.97;;;7.00;67.20;;;;;;2374406;56;21030;-75
2022/01/28 03:08:57;;;;;;;18.98;3.53;;;7.00;67.10;;;;;;2373907;56;21117;-74
2022/01/28 03:14:20;;;;;;;23.50;3.87;;;7.00;67.40;;;;;;2626088;52;21058;-75
2022/01/28 03:17:07;;;;;;;22.30;3.67;;;7.00;67.80;;;;;;2374239;56;21074;-75
2022/01/28 03:19:51;;;;;;;25.08;3.28;;;6.90;68.10;;;;;;2373648;56;21130;-75
2022/01/28 03:22:18;;;;;;;23.77;4.12;;;7.00;68.00;;;;;;2374147;56;21118;-73
2022/01/28 03:24:50;;;;;;;17.55;3.22;;;7.00;68.50;;;;;;2373472;56;21043;-76
2022/01/28 03:27:35;;;;;;;35.65;5.47;;;7.00;68.90;;;;;;2627528;52;21032;-75
2022/01/28 03:30:02;;;;;;;22.67;3.95;;;7.00;69.30;;;;;;2373241;56;21039;-76
2022/01/28 03:32:30;;;;;;;24.42;4.20;;;7.00;69.20;;;;;;2374274;56;21039;-75
2022/01/28 03:34:57;;;;;;;21.95;4.00;;;7.00;69.50;;;;;;2373813;56;21046;-74
2022/01/28 03:37:24;;;;;;;16.58;3.55;;;7.00;69.30;;;;;;2627586;52;21035;-75
2022/01/28 03:39:52;;;;;;;26.85;4.15;;;7.00;69.40;;;;;;2372961;56;21091;-75
2022/01/28 03:42:19;;;;;;;27.05;3.90;;;6.90;69.20;;;;;;2374351;56;21047;-75
2022/01/28 03:44:46;;;;;;;26.65;4.53;;;6.90;69.10;;;;;;2373861;56;21102;-75
2022/01/28 03:47:14;;;;;;;26.42;3.80;;;6.90;69.40;;;;;;2374109;56;21375;-75
2022/01/28 03:49:41;;;;;;;22.23;4.43;;;6.90;69.00;;;;;;2373845;56;21043;-75
2022/01/28 03:52:09;;;;;;;30.62;4.12;;;6.90;68.60;;;;;;2374058;56;21296;-74
2022/01/28 03:54:36;;;;;;;29.52;5.78;;;6.90;69.00;;;;;;2442475;54;67645;-80
2022/01/28 03:57:07;;;;;;;25.15;4.70;;;6.90;68.20;;;;;;2543810;54;21098;-82
2022/01/28 03:59:34;;;;;;;16.87;4.28;;;6.90;68.10;;;;;;2543288;54;21109;-82
2022/01/28 04:02:02;;;;;;;24.33;4.43;;;6.90;67.80;;;;;;2544594;54;21145;-81
2022/01/28 04:05:35;;;;;;;17.52;3.20;;;6.90;67.30;;;;;;2541828;54;21141;-80
2022/01/28 04:13:33;;;;;;;23.10;3.90;;;6.90;66.40;;;;;;2304457;58;21042;-81
2022/01/28 04:16:17;;;;;;;26.25;4.22;;;6.80;66.10;;;;;;2542579;54;21395;-82
2022/01/28 04:18:44;;;;;;;19.33;3.67;;;6.70;65.90;;;;;;2305250;58;21098;-78
2022/01/28 04:21:11;;;;;;;16.42;3.87;;;6.70;66.00;;;;;;2543086;54;21118;-82
2022/01/28 04:23:39;;;;;;;36.95;6.62;;;6.70;66.00;;;;;;2304977;58;21547;-81
2022/01/28 04:26:06;;;;;;;22.92;3.95;;;6.70;66.00;;;;;;2305321;58;21058;-82
2022/01/28 04:28:33;;;;;;;20.73;3.60;;;6.60;66.10;;;;;;2542622;54;21070;-82
2022/01/28 04:31:00;;;;;;;25.62;4.50;;;6.60;66.70;;;;;;2304695;58;21123;-81
2022/01/28 04:33:29;;;;;;;27.05;4.18;;;6.70;66.50;;;;;;2542985;54;21131;-81
2022/01/28 04:35:57;;;;;;;22.62;4.25;;;6.70;66.30;;;;;;2542543;54;21047;-81
2022/01/28 04:38:37;;;;;;;27.20;4.45;;;6.70;66.80;;;;;;2305164;58;21070;-82
2022/01/28 04:41:12;;;;;;;24.95;5.32;;;6.70;66.80;;;;;;2542544;54;21078;-82
2022/01/28 04:43:44;;;;;;;20.12;4.53;;;6.70;66.40;;;;;;2542714;54;21051;-82
2022/01/28 04:46:20;;;;;;;20.02;4.40;;;6.70;66.40;;;;;;2542682;54;21062;-82
2022/01/28 04:48:54;;;;;;;25.95;4.28;;;6.70;66.60;;;;;;2542371;54;21167;-81
2022/01/28 04:51:35;;;;;;;22.23;3.55;;;6.60;66.50;;;;;;2542985;54;21114;-81
2022/01/28 04:54:10;;;;;;;30.62;6.00;;;6.70;66.50;;;;;;2304523;58;21134;-81
2022/01/28 04:56:55;;;;;;;26.37;5.05;;;6.70;66.20;;;;;;2305244;58;21102;-81
2022/01/28 04:59:36;;;;;;;29.20;4.68;;;6.70;66.10;;;;;;2542720;54;21074;-80
2022/01/28 05:05:04;;;;;;;32.78;5.22;;;6.60;66.30;;;;;;2542834;54;21039;-82
2022/01/28 05:10:59;;;;;;;20.83;4.18;;;6.60;65.60;;;;;;2279616;58;21647;-80
2022/01/28 05:17:01;;;;;;;25.10;5.37;;;6.60;65.70;;;;;;2271613;58;21051;-81
2022/01/28 05:27:58;;;;;;;20.80;4.28;;;6.50;65.10;;;;;;2244706;58;21546;-83
2022/01/28 05:30:25;;;;;;;20.20;3.70;;;6.50;65.60;;;;;;2542786;54;21105;-84
2022/01/28 05:32:52;;;;;;;23.35;4.12;;;6.50;65.70;;;;;;2543539;54;21054;-82
2022/01/28 05:35:19;;;;;;;30.30;4.95;;;6.60;65.60;;;;;;2305349;58;21086;-83
2022/01/28 05:37:47;;;;;;;24.95;4.28;;;6.60;65.60;;;;;;2305447;58;21077;-81
2022/01/28 05:40:14;;;;;;;27.87;5.22;;;6.60;66.00;;;;;;2304935;58;21074;-82
2022/01/28 05:42:41;;;;;;;26.67;4.93;;;6.60;65.80;;;;;;2542949;54;21062;-83
2022/01/28 05:45:09;;;;;;;21.37;4.93;;;6.50;65.60;;;;;;2305094;58;21058;-83
2022/01/28 05:47:36;;;;;;;20.25;4.18;;;6.50;65.20;;;;;;2305425;58;21110;-83
2022/01/28 05:50:05;;;;;;;30.48;5.35;;;6.50;66.00;;;;;;2304987;58;21058;-82
2022/01/28 05:52:33;;;;;;;25.17;4.47;;;6.50;65.40;;;;;;2542981;54;21193;-82
2022/01/28 05:55:00;;;;;;;18.27;4.20;;;6.50;65.40;;;;;;2304745;58;21110;-83
2022/01/28 05:57:27;;;;;;;27.90;5.07;;;6.50;65.60;;;;;;2543269;54;21162;-82
2022/01/28 05:59:55;;;;;;;35.05;6.12;;;6.50;65.30;;;;;;2542428;54;21587;-83
2022/01/28 06:02:22;;;;;;;20.75;3.72;;;6.50;65.40;;;;;;2543137;54;21145;-82
2022/01/28 06:04:49;;;;;;;24.77;4.32;;;6.50;65.00;;;;;;2542391;54;21094;-80
2022/01/28 06:07:19;;;;;;;22.87;4.07;;;6.50;65.10;;;;;;2540821;54;21069;-82
2022/01/28 06:09:46;;;;;;;26.70;3.92;;;6.60;64.90;;;;;;2539451;54;21139;-85
2022/01/28 06:12:13;;;;;;;21.75;4.20;;;6.60;64.20;;;;;;2304947;58;21058;-83
2022/01/28 06:14:41;;;;;;;27.30;4.40;;;6.60;63.90;;;;;;2542412;54;21630;-84
2022/01/28 06:17:08;;;;;;;29.48;5.03;;;6.60;64.20;;;;;;2305417;58;21066;-82
2022/01/28 06:19:35;;;;;;;30.70;4.65;;;6.60;63.00;;;;;;2304452;58;21602;-84
2022/01/28 06:22:03;;;;;;;22.95;4.05;;;6.60;63.00;;;;;;2304991;58;21062;-83
2022/01/28 06:24:30;;;;;;;23.52;3.60;;;6.60;63.30;;;;;;2541506;54;21054;-79
2022/01/28 06:26:57;;;;;;;18.60;4.68;;;6.60;63.00;;;;;;2303336;58;21063;-83
2022/01/28 06:29:25;;;;;;;22.33;3.75;;;6.60;62.50;;;;;;2543041;54;21125;-81
2022/01/28 06:31:52;;;;;;;26.60;4.70;;;6.60;62.90;;;;;;2304937;58;21705;-82
2022/01/28 06:34:19;;;;;;;20.62;4.10;;;6.60;62.80;;;;;;2305196;58;21561;-81
2022/01/28 06:36:46;;;;;;;21.98;4.65;;;6.60;62.60;;;;;;2305417;58;21051;-82
2022/01/28 06:39:14;;;;;;;24.52;4.35;;;6.60;62.50;;;;;;2542997;54;21130;-82
2022/01/28 06:41:41;;;;;;;23.25;4.00;;;6.60;62.00;;;;;;2305397;58;21182;-82
2022/01/28 06:44:10;;;;;;;19.12;4.00;;;6.60;61.70;;;;;;2305142;58;21109;-81
2022/01/28 06:46:38;;;;;;;31.70;6.47;;;6.60;61.50;;;;;;2542602;54;21122;-82
2022/01/28 06:49:05;;;;;;;28.95;4.80;;;6.70;62.30;;;;;;2305294;58;21195;-78
2022/01/28 06:51:34;;;;;;;24.00;6.12;;;6.60;61.50;;;;;;2304853;58;21062;-81
2022/01/28 06:54:02;;;;;;;14.70;3.50;;;6.60;61.00;;;;;;2304528;58;21066;-82
2022/01/28 06:56:29;;;;;;;21.45;3.87;;;6.60;60.90;;;;;;2304922;58;21078;-81
2022/01/28 07:01:33;;;;;;;28.48;5.05;;;6.50;60.80;;;;;;2355081;57;22094;-72
2022/01/28 07:04:00;;;;;;;28.75;4.37;;;6.50;61.00;;;;;;2346700;57;21065;-73
2022/01/28 07:06:27;;;;;;;20.50;3.70;;;6.50;61.10;;;;;;2346945;57;21128;-74
2022/01/28 07:08:54;;;;;;;20.37;4.10;;;6.50;62.30;;;;;;2347071;56;21437;-74
2022/01/28 07:11:22;;;;;;;20.83;4.05;;;6.50;61.60;;;;;;2374062;56;21099;-74
2022/01/28 07:13:49;;;;;;;31.42;4.15;;;6.50;61.80;;;;;;2627476;52;21122;-74
2022/01/28 07:16:16;;;;;;;14.27;4.53;;;6.50;61.60;;;;;;2374397;56;21042;-74
2022/01/28 07:18:44;;;;;;;28.30;4.53;;;6.50;61.80;;;;;;2374225;56;21051;-74
2022/01/28 07:21:11;;;;;;;23.40;4.60;;;6.50;61.40;;;;;;2374112;56;21043;-74
2022/01/28 07:23:38;;;;;;;25.48;4.18;;;6.50;62.20;;;;;;2373986;56;21116;-73
2022/01/28 07:26:05;;;;;;;22.33;4.47;;;6.40;61.20;;;;;;2374332;56;21042;-73
2022/01/28 07:28:34;;;;;;;20.37;4.15;;;6.40;61.60;;;;;;2373963;56;21066;-74
2022/01/28 07:31:02;;;;;;;24.95;4.18;;;6.50;62.30;;;;;;2371689;56;21051;-73
2022/01/28 07:33:29;;;;;;;27.58;5.50;;;6.40;62.30;;;;;;2627610;52;21110;-73
2022/01/28 07:35:57;;;;;;;19.58;3.58;;;6.40;61.90;;;;;;2374278;56;21051;-73
2022/01/28 07:38:24;;;;;;;21.70;4.32;;;6.40;61.80;;;;;;2372445;56;21624;-74
2022/01/28 07:40:51;;;;;;;28.73;5.32;;;6.40;62.30;;;;;;2373879;56;21117;-74
2022/01/28 07:43:19;;;;;;;21.90;4.68;;;6.40;61.90;;;;;;2374259;56;21035;-74
2022/01/28 07:45:46;;;;;;;23.45;4.90;;;6.40;62.30;;;;;;2374283;56;21106;-73
2022/01/28 07:48:13;;;;;;;16.83;4.07;;;6.40;62.30;;;;;;2374397;56;21680;-73
2022/01/28 07:50:41;;;;;;;21.23;4.97;;;6.40;63.10;;;;;;2373421;56;21639;-74
2022/01/28 07:53:09;;;;;;;30.85;5.10;;;6.40;62.90;;;;;;2374463;56;21046;-73
2022/01/28 07:55:36;;;;;;;26.65;4.68;;;6.40;63.10;;;;;;2627493;52;21165;-74
2022/01/28 07:58:03;;;;;;;15.15;3.58;;;6.40;62.90;;;;;;2374275;56;21051;-74
2022/01/28 08:00:31;;;;;;;30.60;5.82;;;6.40;62.90;;;;;;2374575;56;21114;-73
2022/01/28 08:02:58;;;;;;;38.78;8.25;;;6.30;62.90;;;;;;2373232;56;21051;-74
2022/01/28 08:05:25;;;;;;;36.00;6.37;;;6.30;63.20;;;;;;2374635;56;21059;-74
2022/01/28 08:07:52;;;;;;;33.13;5.68;;;6.40;63.50;;;;;;2373260;56;21108;-73
2022/01/28 08:10:20;;;;;;;33.33;4.87;;;6.40;63.10;;;;;;2374368;56;21047;-74
2022/01/28 08:12:49;;;;;;;34.38;5.15;;;6.50;63.40;;;;;;2373738;56;21645;-74
2022/01/28 08:15:17;;;;;;;19.17;3.70;;;6.40;62.90;;;;;;2627473;52;21101;-74
2022/01/28 08:17:46;;;;;;;50.75;7.87;;;6.40;63.20;;;;;;2374113;56;21114;-73
2022/01/28 08:20:13;;;;;;;24.23;5.37;;;6.50;63.80;;;;;;2373159;56;21054;-74
2022/01/28 08:22:48;;;;;;;21.40;4.30;;;6.40;63.10;;;;;;2373898;56;21121;-73
2022/01/28 08:25:16;;;;;;;34.25;5.78;;;6.40;63.20;;;;;;2373858;56;21055;-74
2022/01/28 08:27:44;;;;;;;18.02;4.90;;;6.50;63.40;;;;;;2373962;56;21055;-73
2022/01/28 08:30:14;;;;;;;23.77;5.37;;;6.40;63.40;;;;;;2373124;56;21055;-74
2022/01/28 08:32:41;;;;;;;26.02;5.65;;;6.40;63.80;;;;;;2373753;56;21047;-73
2022/01/28 08:35:09;;;;;;;27.50;4.40;;;6.40;63.90;;;;;;2373986;56;21059;-73
2022/01/28 08:37:37;;;;;;;32.20;5.78;;;6.40;63.70;;;;;;2373749;56;21125;-74
2022/01/28 08:40:08;;;;;;;19.12;4.10;;;6.40;63.40;;;;;;2373448;56;21050;-73
2022/01/28 08:42:36;;;;;;;27.92;4.75;;;6.50;64.50;;;;;;2374123;56;21510;-73
2022/01/28 08:45:04;;;;;;;19.35;4.22;;;6.50;64.10;;;;;;2374023;56;21169;-73
2022/01/28 08:47:32;;;;;;;26.95;5.57;;;6.50;63.90;;;;;;2627048;52;21043;-73
2022/01/28 08:49:59;;;;;;;22.75;5.07;;;6.60;63.90;;;;;;2373578;56;21133;-73
2022/01/28 08:52:26;;;;;;;27.87;4.80;;;6.60;64.10;;;;;;2374138;56;21051;-73
2022/01/28 08:54:54;;;;;;;35.20;4.80;;;6.50;63.80;;;;;;2373887;56;21062;-73
2022/01/28 08:57:21;;;;;;;18.73;4.00;;;6.60;64.70;;;;;;2373943;56;21174;-73
2022/01/28 08:59:49;;;;;;;27.40;4.22;;;6.60;64.60;;;;;;2373106;56;21558;-73
2022/01/28 09:02:16;;;;;;;20.95;5.30;;;6.60;65.00;;;;;;2373891;56;21649;-73
2022/01/28 09:04:46;;;;;;;18.45;3.65;;;6.60;65.30;;;;;;2373556;56;21644;-73
2022/01/28 09:07:13;;;;;;;23.17;5.32;;;6.60;65.40;;;;;;2374135;56;21604;-73
2022/01/28 09:09:48;;;;;;;20.60;5.18;;;6.70;65.20;;;;;;2373256;56;21043;-73
2022/01/28 09:12:31;;;;;;;29.45;4.62;;;6.60;64.60;;;;;;2374168;56;21034;-73
2022/01/28 09:14:58;;;;;;;20.75;4.22;;;6.60;64.30;;;;;;2374076;56;21055;-73
2022/01/28 09:17:26;;;;;;;29.33;5.00;;;6.60;64.10;;;;;;2374032;56;21046;-72
2022/01/28 09:19:53;;;;;;;32.38;4.57;;;6.60;64.50;;;;;;2372948;56;21570;-73
2022/01/28 09:22:20;;;;;;;23.40;4.82;;;6.70;64.50;;;;;;2374060;56;21124;-73
2022/01/28 09:24:47;;;;;;;24.48;6.28;;;6.70;65.10;;;;;;2373635;56;21035;-73
2022/01/28 09:27:15;;;;;;;27.62;5.10;;;6.70;64.40;;;;;;2374001;56;21636;-74
2022/01/28 09:29:42;;;;;;;25.73;4.72;;;6.70;64.90;;;;;;2626681;52;21545;-74
2022/01/28 09:32:09;;;;;;;17.30;4.75;;;6.80;65.00;;;;;;2374298;56;21138;-74
2022/01/28 09:34:36;;;;;;;26.40;5.95;;;6.80;65.10;;;;;;2373523;56;21130;-73
2022/01/28 09:37:04;;;;;;;32.00;4.68;;;6.80;65.10;;;;;;2372794;56;21094;-73
2022/01/28 09:39:33;;;;;;;29.08;4.70;;;6.80;64.80;;;;;;2626122;52;21526;-74
2022/01/28 09:42:03;;;;;;;32.70;7.93;;;6.80;64.80;;;;;;2374296;56;21047;-74
2022/01/28 09:44:31;;;;;;;21.80;4.55;;;6.80;65.30;;;;;;2373786;56;21051;-73
2022/01/28 09:46:59;;;;;;;26.80;5.22;;;6.80;64.90;;;;;;2373528;56;21082;-74
2022/01/28 09:49:27;;;;;;;31.27;4.55;;;6.90;64.90;;;;;;2623434;52;21142;-74
2022/01/28 09:51:55;;;;;;;29.08;5.70;;;7.00;65.00;;;;;;2626168;52;21023;-73
2022/01/28 09:54:23;;;;;;;25.90;5.37;;;7.00;64.60;;;;;;2373268;56;21066;-74
2022/01/28 09:56:50;;;;;;;22.40;4.87;;;7.00;64.40;;;;;;2373522;56;21039;-74
2022/01/28 09:59:18;;;;;;;22.35;4.37;;;7.00;64.10;;;;;;2372679;56;21050;-74
2022/01/28 10:01:49;;;;;;;22.50;4.60;;;7.10;64.20;;;;;;2372729;56;21031;-74
2022/01/28 10:04:18;;;;;;;29.00;5.07;;;7.10;63.60;;;;;;2372111;56;21059;-74
2022/01/28 10:06:47;;;;;;;15.57;3.83;;;7.00;63.10;;;;;;2372868;56;21078;-74
2022/01/28 10:09:17;;;;;;;25.23;5.45;;;7.00;63.30;;;;;;2452181;55;21528;-77
2022/01/28 10:11:49;;;;;;;20.67;5.85;;;7.00;63.90;;;;;;2270402;59;21150;-76
2022/01/28 10:14:19;;;;;;;34.42;7.43;;;7.10;64.00;;;;;;2271196;59;21091;-76
2022/01/28 10:16:56;;;;;;;28.98;4.45;;;7.10;63.50;;;;;;2271057;59;21059;-76
2022/01/28 10:19:26;;;;;;;22.55;4.93;;;7.10;63.70;;;;;;2270713;59;21190;-76
2022/01/28 10:21:54;;;;;;;18.83;4.03;;;7.10;63.50;;;;;;2270896;59;21059;-76
2022/01/28 10:24:25;;;;;;;15.82;3.65;;;7.20;63.40;;;;;;2271262;59;21059;-76
2022/01/28 10:26:56;;;;;;;24.73;4.22;;;7.20;63.50;;;;;;2270966;59;21067;-76
2022/01/28 10:29:26;;;;;;;21.92;4.03;;;7.20;63.30;;;;;;2270746;59;21228;-77
2022/01/28 10:31:56;;;;;;;21.02;4.05;;;7.10;62.70;;;;;;2271157;59;21096;-76
2022/01/28 10:34:29;;;;;;;35.08;4.28;;;7.00;62.70;;;;;;2501600;55;21059;-77
2022/01/28 10:37:14;;;;;;;27.23;4.82;;;7.00;63.00;;;;;;2270591;59;21632;-76
2022/01/28 10:39:45;;;;;;;25.62;4.12;;;7.00;63.00;;;;;;2270603;59;21160;-76
2022/01/28 10:42:15;;;;;;;26.70;3.50;;;7.00;63.10;;;;;;2271453;59;21055;-76
2022/01/28 10:44:56;;;;;;;19.33;3.80;;;7.00;63.20;;;;;;2270874;59;21111;-76
2022/01/28 10:47:36;;;;;;;20.10;3.92;;;7.10;63.60;;;;;;2271131;59;21047;-76
2022/01/28 10:50:22;;;;;;;32.92;4.53;;;7.10;63.70;;;;;;2270432;59;21043;-77
2022/01/28 10:52:59;;;;;;;32.08;3.83;;;7.20;63.60;;;;;;2271152;59;21047;-75
2022/01/28 10:55:28;;;;;;;20.60;3.55;;;7.10;63.20;;;;;;2271260;59;21118;-75
2022/01/28 10:58:00;;;;;;;17.67;3.80;;;7.20;63.20;;;;;;2501786;55;21110;-76
2022/01/28 11:00:31;;;;;;;28.20;4.70;;;7.20;62.80;;;;;;2270830;59;21107;-76
2022/01/28 11:03:01;;;;;;;22.95;4.93;;;7.20;62.60;;;;;;2270893;59;21079;-76
2022/01/28 11:05:30;;;;;;;18.25;5.20;;;7.20;62.50;;;;;;2271260;59;21067;-76
2022/01/28 11:07:58;;;;;;;20.98;5.20;;;7.20;62.70;;;;;;2270990;59;21533;-76
2022/01/28 11:10:26;;;;;;;26.45;4.00;;;7.30;63.10;;;;;;2270848;59;21562;-76
2022/01/28 11:12:54;;;;;;;20.90;4.75;;;7.30;63.30;;;;;;2271008;59;21107;-76
2022/01/28 11:15:22;;;;;;;20.85;3.78;;;7.40;63.40;;;;;;2271312;59;21058;-76
2022/01/28 11:17:51;;;;;;;22.52;4.32;;;7.50;63.50;;;;;;2270993;59;21095;-76
2022/01/28 11:20:22;;;;;;;18.60;3.95;;;7.50;62.60;;;;;;2270654;59;21079;-76
2022/01/28 11:23:04;;;;;;;23.60;3.65;;;7.50;62.60;;;;;;2270816;59;21115;-76
2022/01/28 11:25:43;;;;;;;20.98;5.70;;;7.60;63.10;;;;;;2271208;59;21039;-76
2022/01/28 11:28:13;;;;;;;22.77;3.97;;;7.60;62.60;;;;;;2271153;59;21050;-76
2022/01/28 11:30:47;;;;;;;17.70;3.67;;;7.60;62.00;;;;;;2270411;59;21175;-76
2022/01/28 11:33:15;;;;;;;22.35;4.07;;;7.60;61.80;;;;;;2501824;55;21043;-76
2022/01/28 11:36:01;;;;;;;11.82;3.20;;;7.70;61.70;;;;;;2501547;55;21103;-76
2022/01/28 11:41:32;;;;;;;21.42;4.03;;;7.60;61.40;;;;;;2356237;57;22580;-73
2022/01/28 11:44:00;;;;;;;12.82;3.03;;;7.70;61.10;;;;;;2595528;53;21183;-74
2022/01/28 11:46:31;;;;;;;14.80;3.12;;;7.70;61.90;;;;;;2347607;57;21129;-74
2022/01/28 11:49:24;;;;;;;14.85;3.83;;;7.70;61.60;;;;;;2349064;56;21131;-74
2022/01/28 11:51:52;;;;;;;16.45;3.70;;;7.80;61.40;;;;;;2374529;56;21051;-74
2022/01/28 11:54:37;;;;;;;18.80;3.40;;;7.90;61.20;;;;;;2629096;52;21035;-75
2022/01/28 11:57:19;;;;;;;18.77;3.05;;;8.00;61.20;;;;;;2628628;52;21110;-76
2022/01/28 11:59:47;;;;;;;16.02;2.95;;;8.10;61.40;;;;;;2374674;56;21043;-76
2022/01/28 12:02:16;;;;;;;15.32;3.28;;;8.10;61.40;;;;;;2375232;56;21039;-75
2022/01/28 12:04:45;;;;;;;15.93;3.17;;;8.10;61.30;;;;;;2374831;56;21071;-75
2022/01/28 12:07:15;;;;;;;12.27;3.92;;;8.10;60.20;;;;;;2627560;52;21011;-75
2022/01/28 12:09:45;;;;;;;18.77;3.65;;;8.10;60.70;;;;;;2373606;56;21046;-75
2022/01/28 12:12:14;;;;;;;16.00;3.33;;;8.10;60.30;;;;;;2374785;56;21047;-75
2022/01/28 12:14:57;;;;;;;26.17;4.75;;;8.20;60.30;;;;;;2375251;56;21106;-75
2022/01/28 12:17:45;;;;;;;13.27;3.12;;;8.30;60.60;;;;;;2375474;56;21055;-75
2022/01/28 12:20:44;;;;;;;20.58;4.32;;;8.30;60.60;;;;;;2374739;56;21051;-75
2022/01/28 12:23:29;;;;;;;16.80;3.67;;;8.30;60.20;;;;;;2375355;56;21066;-75
2022/01/28 12:25:58;;;;;;;15.45;3.67;;;8.30;59.90;;;;;;2375056;56;21047;-76
2022/01/28 12:28:45;;;;;;;14.77;3.37;;;8.30;60.10;;;;;;2375299;56;21023;-76
2022/01/28 12:31:16;;;;;;;11.38;3.22;;;8.40;60.60;;;;;;2374516;56;22251;-75
2022/01/28 12:33:46;;;;;;;15.48;3.08;;;8.40;60.20;;;;;;2374528;56;21050;-75
2022/01/28 12:36:16;;;;;;;17.77;3.30;;;8.40;60.10;;;;;;2374946;56;21050;-75
2022/01/28 12:38:55;;;;;;;16.55;4.50;;;8.50;59.80;;;;;;2374912;56;21031;-75
2022/01/28 12:41:23;;;;;;;11.52;3.50;;;8.50;59.70;;;;;;2628401;52;21059;-75
2022/01/28 12:43:52;;;;;;;9.70;2.20;;;8.60;60.80;;;;;;2374842;56;21079;-75
2022/01/28 12:46:19;;;;;;;17.83;3.53;;;8.60;59.90;;;;;;2374988;56;21106;-75
2022/01/28 12:48:48;;;;;;;12.98;3.83;;;8.70;59.20;;;;;;2374494;56;21101;-76
2022/01/28 12:51:17;;;;;;;14.98;3.10;;;8.70;58.80;;;;;;2374958;56;21042;-75
2022/01/28 12:53:47;;;;;;;12.85;3.03;;;8.70;59.00;;;;;;2374031;56;21331;-75
2022/01/28 12:56:17;;;;;;;15.88;3.97;;;8.70;59.20;;;;;;2373907;56;21055;-75
2022/01/28 12:58:49;;;;;;;16.35;2.90;;;8.80;59.30;;;;;;2374087;56;21102;-76
2022/01/28 13:01:17;;;;;;;11.38;2.85;;;8.80;59.20;;;;;;2373671;56;21051;-75
2022/01/28 13:03:50;;;;;;;11.80;2.97;;;8.90;59.60;;;;;;2374133;56;21090;-75
2022/01/28 13:06:26;;;;;;;16.62;3.62;;;8.90;59.60;;;;;;2373923;56;21142;-75
2022/01/28 13:08:54;;;;;;;11.27;2.85;;;9.00;59.40;;;;;;2371732;56;21039;-76
2022/01/28 13:11:21;;;;;;;19.25;3.87;;;9.00;58.90;;;;;;2372922;56;21105;-75
2022/01/28 13:13:51;;;;;;;13.43;3.97;;;9.00;58.50;;;;;;2371254;56;21098;-75
2022/01/28 13:16:31;;;;;;;17.27;3.58;;;9.00;59.00;;;;;;2372411;56;21039;-76
2022/01/28 13:19:00;;;;;;;13.43;2.80;;;9.00;58.50;;;;;;2372291;56;21106;-75
2022/01/28 13:21:28;;;;;;;16.77;3.47;;;9.00;58.40;;;;;;2372471;56;21039;-76
2022/01/28 13:24:12;;;;;;;14.05;3.37;;;9.00;58.00;;;;;;2373082;56;21094;-75
2022/01/28 13:26:54;;;;;;;20.10;3.05;;;9.10;57.80;;;;;;2625776;52;21075;-75
2022/01/28 13:29:31;;;;;;;9.77;2.70;;;9.10;58.00;;;;;;2372787;56;21383;-75
2022/01/28 13:31:59;;;;;;;11.05;3.15;;;9.10;58.90;;;;;;2626057;52;21106;-75
2022/01/28 13:34:27;;;;;;;14.13;2.90;;;9.10;57.90;;;;;;2372895;56;21352;-76
2022/01/28 13:36:57;;;;;;;11.85;2.97;;;9.10;58.50;;;;;;2372947;56;21067;-75
2022/01/28 13:39:27;;;;;;;23.90;5.40;;;9.10;58.50;;;;;;2372834;56;21542;-75
2022/01/28 13:42:10;;;;;;;20.12;3.70;;;9.20;58.60;;;;;;2372403;56;21065;-75
2022/01/28 13:44:39;;;;;;;12.93;2.93;;;9.10;58.30;;;;;;2372457;56;21625;-75
2022/01/28 13:47:09;;;;;;;13.80;3.25;;;9.10;57.90;;;;;;2373715;56;21126;-75
2022/01/28 13:49:38;;;;;;;21.23;3.33;;;9.10;58.10;;;;;;2372872;56;21051;-75
2022/01/28 13:52:18;;;;;;;15.80;3.80;;;9.10;58.70;;;;;;2373095;56;21101;-75
2022/01/28 13:54:46;;;;;;;17.27;4.18;;;9.10;59.20;;;;;;2373295;56;21039;-75
2022/01/28 13:57:13;;;;;;;24.55;4.15;;;9.10;59.50;;;;;;2371829;56;21134;-75
2022/01/28 13:59:42;;;;;;;17.12;3.70;;;9.20;59.80;;;;;;2625889;52;21039;-75
2022/01/28 14:02:17;;;;;;;22.60;3.70;;;9.20;59.70;;;;;;2373307;56;21038;-75
2022/01/28 14:04:47;;;;;;;24.80;4.00;;;9.20;59.80;;;;;;2373468;56;21062;-75